sensor_id;sensor_type;location;lat;lon;timestamp;P1;durP1;ratioP1;P2;durP2;ratioP2
73841;SDS011;62184;52.006;5.924;2023-09-19T00:01:27;13.07;;;11.88;;
73841;SDS011;62184;52.006;5.924;2023-09-19T00:03:56;12.80;;;11.70;;
73841;SDS011;62184;52.006;5.924;2023-09-19T00:06:22;13.15;;;11.95;;
73841;SDS011;62184;52.006;5.924;2023-09-19T00:08:49;12.80;;;11.60;;
73841;SDS011;62184;52.006;5.924;2023-09-19T00:11:15;13.35;;;12.05;;
73841;SDS011;62184;52.006;5.924;2023-09-19T00:13:42;13.30;;;11.98;;
73841;SDS011;62184;52.006;5.924;2023-09-19T00:16:09;13.47;;;12.10;;
73841;SDS011;62184;52.006;5.924;2023-09-19T00:18:36;13.50;;;12.30;;
73841;SDS011;62184;52.006;5.924;2023-09-19T00:21:06;13.35;;;12.18;;
73841;SDS011;62184;52.006;5.924;2023-09-19T00:23:32;13.20;;;12.00;;
73841;SDS011;62184;52.006;5.924;2023-09-19T00:25:59;13.07;;;11.80;;
73841;SDS011;62184;52.006;5.924;2023-09-19T00:28:26;12.63;;;11.43;;
73841;SDS011;62184;52.006;5.924;2023-09-19T00:30:53;13.02;;;11.73;;
73841;SDS011;62184;52.006;5.924;2023-09-19T00:33:19;13.23;;;11.93;;
73841;SDS011;62184;52.006;5.924;2023-09-19T00:35:46;13.40;;;12.10;;
73841;SDS011;62184;52.006;5.924;2023-09-19T00:38:16;14.40;;;12.52;;
73841;SDS011;62184;52.006;5.924;2023-09-19T00:40:43;13.55;;;12.20;;
73841;SDS011;62184;52.006;5.924;2023-09-19T00:43:10;14.65;;;13.13;;
73841;SDS011;62184;52.006;5.924;2023-09-19T00:45:36;14.25;;;12.75;;
73841;SDS011;62184;52.006;5.924;2023-09-19T00:48:04;14.30;;;12.65;;
73841;SDS011;62184;52.006;5.924;2023-09-19T00:50:32;14.90;;;13.05;;
73841;SDS011;62184;52.006;5.924;2023-09-19T00:52:58;14.37;;;12.73;;
73841;SDS011;62184;52.006;5.924;2023-09-19T00:55:28;14.65;;;13.02;;
73841;SDS011;62184;52.006;5.924;2023-09-19T00:57:55;16.38;;;13.02;;
73841;SDS011;62184;52.006;5.924;2023-09-19T01:00:22;15.23;;;13.73;;
73841;SDS011;62184;52.006;5.924;2023-09-19T01:02:49;15.95;;;14.20;;
73841;SDS011;62184;52.006;5.924;2023-09-19T01:05:16;16.17;;;14.33;;
73841;SDS011;62184;52.006;5.924;2023-09-19T01:07:43;16.70;;;15.00;;
73841;SDS011;62184;52.006;5.924;2023-09-19T01:10:10;15.93;;;14.33;;
73841;SDS011;62184;52.006;5.924;2023-09-19T01:12:47;16.00;;;14.60;;
73841;SDS011;62184;52.006;5.924;2023-09-19T01:15:32;15.82;;;14.18;;
73841;SDS011;62184;52.006;5.924;2023-09-19T01:18:16;16.10;;;14.50;;
73841;SDS011;62184;52.006;5.924;2023-09-19T01:21:02;17.45;;;15.20;;
73841;SDS011;62184;52.006;5.924;2023-09-19T01:23:48;16.67;;;14.98;;
73841;SDS011;62184;52.006;5.924;2023-09-19T01:26:48;17.30;;;15.60;;
73841;SDS011;62184;52.006;5.924;2023-09-19T01:29:48;17.38;;;15.55;;
73841;SDS011;62184;52.006;5.924;2023-09-19T01:32:19;19.07;;;16.00;;
73841;SDS011;62184;52.006;5.924;2023-09-19T01:34:48;18.65;;;15.70;;
73841;SDS011;62184;52.006;5.924;2023-09-19T01:37:16;17.75;;;15.60;;
73841;SDS011;62184;52.006;5.924;2023-09-19T01:39:45;17.10;;;15.40;;
73841;SDS011;62184;52.006;5.924;2023-09-19T01:42:16;17.50;;;15.90;;
73841;SDS011;62184;52.006;5.924;2023-09-19T01:44:55;16.67;;;15.02;;
73841;SDS011;62184;52.006;5.924;2023-09-19T01:47:35;15.63;;;12.93;;
73841;SDS011;62184;52.006;5.924;2023-09-19T01:50:11;15.77;;;13.15;;
73841;SDS011;62184;52.006;5.924;2023-09-19T01:52:54;16.40;;;13.15;;
73841;SDS011;62184;52.006;5.924;2023-09-19T01:55:30;14.37;;;12.87;;
73841;SDS011;62184;52.006;5.924;2023-09-19T01:58:07;16.98;;;13.40;;
73841;SDS011;62184;52.006;5.924;2023-09-19T02:00:42;16.10;;;14.23;;
73841;SDS011;62184;52.006;5.924;2023-09-19T02:03:15;16.50;;;14.60;;
73841;SDS011;62184;52.006;5.924;2023-09-19T02:05:45;18.45;;;14.63;;
73841;SDS011;62184;52.006;5.924;2023-09-19T02:08:15;17.00;;;14.68;;
73841;SDS011;62184;52.006;5.924;2023-09-19T02:10:43;17.10;;;14.38;;
73841;SDS011;62184;52.006;5.924;2023-09-19T02:13:09;15.27;;;13.70;;
73841;SDS011;62184;52.006;5.924;2023-09-19T02:15:36;16.83;;;13.87;;
73841;SDS011;62184;52.006;5.924;2023-09-19T02:18:03;16.05;;;14.38;;
73841;SDS011;62184;52.006;5.924;2023-09-19T02:20:32;19.60;;;14.57;;
73841;SDS011;62184;52.006;5.924;2023-09-19T02:22:59;16.00;;;14.00;;
73841;SDS011;62184;52.006;5.924;2023-09-19T02:25:25;16.67;;;14.38;;
73841;SDS011;62184;52.006;5.924;2023-09-19T02:27:51;16.77;;;14.27;;
73841;SDS011;62184;52.006;5.924;2023-09-19T02:30:18;15.93;;;14.30;;
73841;SDS011;62184;52.006;5.924;2023-09-19T02:32:44;15.93;;;13.77;;
73841;SDS011;62184;52.006;5.924;2023-09-19T02:35:11;16.25;;;13.43;;
73841;SDS011;62184;52.006;5.924;2023-09-19T02:37:40;17.73;;;14.68;;
73841;SDS011;62184;52.006;5.924;2023-09-19T02:40:07;15.55;;;13.93;;
73841;SDS011;62184;52.006;5.924;2023-09-19T02:42:34;16.08;;;13.88;;
73841;SDS011;62184;52.006;5.924;2023-09-19T02:45:01;15.02;;;13.05;;
73841;SDS011;62184;52.006;5.924;2023-09-19T02:47:27;15.00;;;13.50;;
73841;SDS011;62184;52.006;5.924;2023-09-19T02:49:54;17.75;;;13.82;;
73841;SDS011;62184;52.006;5.924;2023-09-19T02:52:20;15.05;;;13.13;;
73841;SDS011;62184;52.006;5.924;2023-09-19T02:54:49;15.47;;;13.10;;
73841;SDS011;62184;52.006;5.924;2023-09-19T02:57:16;14.82;;;12.90;;
73841;SDS011;62184;52.006;5.924;2023-09-19T02:59:42;15.63;;;13.20;;
73841;SDS011;62184;52.006;5.924;2023-09-19T03:02:08;16.17;;;12.77;;
73841;SDS011;62184;52.006;5.924;2023-09-19T03:04:35;18.20;;;12.90;;
73841;SDS011;62184;52.006;5.924;2023-09-19T03:07:01;16.33;;;13.23;;
73841;SDS011;62184;52.006;5.924;2023-09-19T03:09:28;17.52;;;12.68;;
73841;SDS011;62184;52.006;5.924;2023-09-19T03:11:57;15.40;;;11.73;;
73841;SDS011;62184;52.006;5.924;2023-09-19T03:14:24;15.27;;;11.90;;
73841;SDS011;62184;52.006;5.924;2023-09-19T03:16:50;17.40;;;11.65;;
73841;SDS011;62184;52.006;5.924;2023-09-19T03:19:17;16.75;;;12.20;;
73841;SDS011;62184;52.006;5.924;2023-09-19T03:21:44;13.45;;;11.30;;
73841;SDS011;62184;52.006;5.924;2023-09-19T03:24:10;17.70;;;11.63;;
73841;SDS011;62184;52.006;5.924;2023-09-19T03:26:36;15.57;;;11.63;;
73841;SDS011;62184;52.006;5.924;2023-09-19T03:29:06;16.23;;;11.85;;
73841;SDS011;62184;52.006;5.924;2023-09-19T03:31:32;14.90;;;11.80;;
73841;SDS011;62184;52.006;5.924;2023-09-19T03:33:59;15.13;;;11.50;;
73841;SDS011;62184;52.006;5.924;2023-09-19T03:36:25;14.73;;;11.77;;
73841;SDS011;62184;52.006;5.924;2023-09-19T03:38:54;15.57;;;12.10;;
73841;SDS011;62184;52.006;5.924;2023-09-19T03:41:20;16.50;;;11.80;;
73841;SDS011;62184;52.006;5.924;2023-09-19T03:43:47;15.20;;;12.23;;
73841;SDS011;62184;52.006;5.924;2023-09-19T03:46:16;15.68;;;11.93;;
73841;SDS011;62184;52.006;5.924;2023-09-19T03:48:42;15.20;;;11.90;;
73841;SDS011;62184;52.006;5.924;2023-09-19T03:51:09;15.45;;;11.20;;
73841;SDS011;62184;52.006;5.924;2023-09-19T03:53:35;15.75;;;11.13;;
73841;SDS011;62184;52.006;5.924;2023-09-19T03:56:02;16.33;;;12.13;;
73841;SDS011;62184;52.006;5.924;2023-09-19T03:58:28;14.82;;;11.63;;
73841;SDS011;62184;52.006;5.924;2023-09-19T04:00:55;15.63;;;12.20;;
73841;SDS011;62184;52.006;5.924;2023-09-19T04:03:24;15.52;;;12.68;;
73841;SDS011;62184;52.006;5.924;2023-09-19T04:05:50;14.70;;;12.97;;
73841;SDS011;62184;52.006;5.924;2023-09-19T04:08:17;14.63;;;13.10;;
73841;SDS011;62184;52.006;5.924;2023-09-19T04:10:44;16.42;;;13.48;;
73841;SDS011;62184;52.006;5.924;2023-09-19T04:13:10;16.83;;;13.40;;
73841;SDS011;62184;52.006;5.924;2023-09-19T04:15:37;16.33;;;13.18;;
73841;SDS011;62184;52.006;5.924;2023-09-19T04:18:03;14.90;;;12.55;;
73841;SDS011;62184;52.006;5.924;2023-09-19T04:20:33;15.87;;;14.27;;
73841;SDS011;62184;52.006;5.924;2023-09-19T04:22:59;15.13;;;12.73;;
73841;SDS011;62184;52.006;5.924;2023-09-19T04:25:26;13.93;;;12.40;;
73841;SDS011;62184;52.006;5.924;2023-09-19T04:27:52;14.13;;;12.53;;
73841;SDS011;62184;52.006;5.924;2023-09-19T04:30:18;15.05;;;13.35;;
73841;SDS011;62184;52.006;5.924;2023-09-19T04:32:45;17.63;;;12.65;;
73841;SDS011;62184;52.006;5.924;2023-09-19T04:35:11;15.32;;;12.73;;
73841;SDS011;62184;52.006;5.924;2023-09-19T04:37:40;16.40;;;13.82;;
73841;SDS011;62184;52.006;5.924;2023-09-19T04:40:08;14.35;;;12.75;;
73841;SDS011;62184;52.006;5.924;2023-09-19T04:42:36;13.60;;;12.20;;
73841;SDS011;62184;52.006;5.924;2023-09-19T04:45:03;15.77;;;12.60;;
73841;SDS011;62184;52.006;5.924;2023-09-19T04:47:30;15.82;;;12.38;;
73841;SDS011;62184;52.006;5.924;2023-09-19T04:49:57;13.30;;;11.40;;
73841;SDS011;62184;52.006;5.924;2023-09-19T04:52:23;14.03;;;11.60;;
73841;SDS011;62184;52.006;5.924;2023-09-19T04:54:52;15.15;;;11.23;;
73841;SDS011;62184;52.006;5.924;2023-09-19T04:57:18;13.77;;;11.07;;
73841;SDS011;62184;52.006;5.924;2023-09-19T04:59:45;15.43;;;11.93;;
73841;SDS011;62184;52.006;5.924;2023-09-19T05:02:11;13.73;;;11.82;;
73841;SDS011;62184;52.006;5.924;2023-09-19T05:04:38;13.63;;;12.18;;
73841;SDS011;62184;52.006;5.924;2023-09-19T05:07:04;15.63;;;14.13;;
73841;SDS011;62184;52.006;5.924;2023-09-19T05:09:31;17.08;;;13.80;;
73841;SDS011;62184;52.006;5.924;2023-09-19T05:12:00;16.52;;;12.43;;
73841;SDS011;62184;52.006;5.924;2023-09-19T05:14:26;14.60;;;12.98;;
73841;SDS011;62184;52.006;5.924;2023-09-19T05:16:53;14.27;;;12.45;;
73841;SDS011;62184;52.006;5.924;2023-09-19T05:19:19;13.40;;;11.90;;
73841;SDS011;62184;52.006;5.924;2023-09-19T05:21:45;14.88;;;12.27;;
73841;SDS011;62184;52.006;5.924;2023-09-19T05:24:12;15.43;;;11.70;;
73841;SDS011;62184;52.006;5.924;2023-09-19T05:26:38;13.33;;;11.10;;
73841;SDS011;62184;52.006;5.924;2023-09-19T05:29:07;15.43;;;11.27;;
73841;SDS011;62184;52.006;5.924;2023-09-19T05:31:34;12.97;;;10.60;;
73841;SDS011;62184;52.006;5.924;2023-09-19T05:34:00;15.03;;;10.63;;
73841;SDS011;62184;52.006;5.924;2023-09-19T05:36:27;13.70;;;10.48;;
73841;SDS011;62184;52.006;5.924;2023-09-19T05:38:53;13.25;;;10.50;;
73841;SDS011;62184;52.006;5.924;2023-09-19T05:41:20;13.45;;;10.75;;
73841;SDS011;62184;52.006;5.924;2023-09-19T05:43:46;12.65;;;10.70;;
73841;SDS011;62184;52.006;5.924;2023-09-19T05:46:17;16.67;;;11.18;;
73841;SDS011;62184;52.006;5.924;2023-09-19T05:48:44;15.02;;;10.85;;
73841;SDS011;62184;52.006;5.924;2023-09-19T05:51:10;14.63;;;11.35;;
73841;SDS011;62184;52.006;5.924;2023-09-19T05:53:37;13.77;;;11.07;;
73841;SDS011;62184;52.006;5.924;2023-09-19T05:56:03;14.20;;;11.32;;
73841;SDS011;62184;52.006;5.924;2023-09-19T05:58:30;15.80;;;10.95;;
73841;SDS011;62184;52.006;5.924;2023-09-19T06:00:56;14.82;;;10.95;;
73841;SDS011;62184;52.006;5.924;2023-09-19T06:03:25;12.80;;;10.80;;
73841;SDS011;62184;52.006;5.924;2023-09-19T06:05:52;14.77;;;11.02;;
73841;SDS011;62184;52.006;5.924;2023-09-19T06:08:18;14.07;;;10.50;;
73841;SDS011;62184;52.006;5.924;2023-09-19T06:10:45;12.45;;;11.13;;
73841;SDS011;62184;52.006;5.924;2023-09-19T06:13:12;14.47;;;11.07;;
73841;SDS011;62184;52.006;5.924;2023-09-19T06:15:38;14.45;;;11.40;;
73841;SDS011;62184;52.006;5.924;2023-09-19T06:18:05;13.18;;;11.13;;
73841;SDS011;62184;52.006;5.924;2023-09-19T06:20:39;14.82;;;11.40;;
73841;SDS011;62184;52.006;5.924;2023-09-19T06:23:06;17.60;;;11.48;;
73841;SDS011;62184;52.006;5.924;2023-09-19T06:25:32;13.55;;;10.80;;
73841;SDS011;62184;52.006;5.924;2023-09-19T06:27:59;14.73;;;10.70;;
73841;SDS011;62184;52.006;5.924;2023-09-19T06:30:25;15.93;;;11.45;;
73841;SDS011;62184;52.006;5.924;2023-09-19T06:32:55;15.50;;;10.85;;
73841;SDS011;62184;52.006;5.924;2023-09-19T06:35:21;12.32;;;11.05;;
73841;SDS011;62184;52.006;5.924;2023-09-19T06:37:51;13.77;;;11.38;;
73841;SDS011;62184;52.006;5.924;2023-09-19T06:40:18;13.65;;;11.43;;
73841;SDS011;62184;52.006;5.924;2023-09-19T06:42:45;13.27;;;11.53;;
73841;SDS011;62184;52.006;5.924;2023-09-19T06:45:15;13.10;;;11.25;;
73841;SDS011;62184;52.006;5.924;2023-09-19T06:47:42;13.83;;;11.53;;
73841;SDS011;62184;52.006;5.924;2023-09-19T06:50:09;15.80;;;11.50;;
73841;SDS011;62184;52.006;5.924;2023-09-19T06:52:35;16.02;;;11.13;;
73841;SDS011;62184;52.006;5.924;2023-09-19T06:55:05;13.65;;;11.43;;
73841;SDS011;62184;52.006;5.924;2023-09-19T06:57:32;15.38;;;11.32;;
73841;SDS011;62184;52.006;5.924;2023-09-19T06:59:58;15.20;;;11.50;;
73841;SDS011;62184;52.006;5.924;2023-09-19T07:02:25;13.85;;;11.52;;
73841;SDS011;62184;52.006;5.924;2023-09-19T07:04:51;13.82;;;11.18;;
73841;SDS011;62184;52.006;5.924;2023-09-19T07:07:17;13.65;;;11.18;;
73841;SDS011;62184;52.006;5.924;2023-09-19T07:09:44;13.60;;;11.20;;
73841;SDS011;62184;52.006;5.924;2023-09-19T07:12:13;14.40;;;11.63;;
73841;SDS011;62184;52.006;5.924;2023-09-19T07:14:39;13.60;;;11.60;;
73841;SDS011;62184;52.006;5.924;2023-09-19T07:17:06;15.70;;;11.20;;
73841;SDS011;62184;52.006;5.924;2023-09-19T07:19:32;14.38;;;11.70;;
73841;SDS011;62184;52.006;5.924;2023-09-19T07:21:59;14.15;;;11.77;;
73841;SDS011;62184;52.006;5.924;2023-09-19T07:24:25;16.73;;;11.60;;
73841;SDS011;62184;52.006;5.924;2023-09-19T07:26:51;14.77;;;11.10;;
73841;SDS011;62184;52.006;5.924;2023-09-19T07:29:21;14.87;;;11.33;;
73841;SDS011;62184;52.006;5.924;2023-09-19T07:31:47;15.23;;;10.93;;
73841;SDS011;62184;52.006;5.924;2023-09-19T07:34:14;15.33;;;11.40;;
73841;SDS011;62184;52.006;5.924;2023-09-19T07:36:40;16.55;;;11.10;;
73841;SDS011;62184;52.006;5.924;2023-09-19T07:39:07;14.48;;;11.00;;
73841;SDS011;62184;52.006;5.924;2023-09-19T07:41:33;16.70;;;11.00;;
73841;SDS011;62184;52.006;5.924;2023-09-19T07:44:00;14.80;;;10.98;;
73841;SDS011;62184;52.006;5.924;2023-09-19T07:46:29;16.42;;;11.10;;
73841;SDS011;62184;52.006;5.924;2023-09-19T07:48:56;12.05;;;10.70;;
73841;SDS011;62184;52.006;5.924;2023-09-19T07:51:23;14.73;;;10.50;;
73841;SDS011;62184;52.006;5.924;2023-09-19T07:53:49;14.88;;;10.50;;
73841;SDS011;62184;52.006;5.924;2023-09-19T07:56:16;15.43;;;10.30;;
73841;SDS011;62184;52.006;5.924;2023-09-19T07:58:42;14.45;;;10.70;;
73841;SDS011;62184;52.006;5.924;2023-09-19T08:01:09;15.50;;;10.68;;
73841;SDS011;62184;52.006;5.924;2023-09-19T08:03:39;13.57;;;10.65;;
73841;SDS011;62184;52.006;5.924;2023-09-19T08:06:06;15.38;;;10.27;;
73841;SDS011;62184;52.006;5.924;2023-09-19T08:08:33;14.55;;;10.50;;
73841;SDS011;62184;52.006;5.924;2023-09-19T08:11:00;15.43;;;9.80;;
73841;SDS011;62184;52.006;5.924;2023-09-19T08:13:26;13.90;;;10.30;;
73841;SDS011;62184;52.006;5.924;2023-09-19T08:15:53;16.70;;;10.85;;
73841;SDS011;62184;52.006;5.924;2023-09-19T08:18:19;15.18;;;10.73;;
73841;SDS011;62184;52.006;5.924;2023-09-19T08:20:52;16.80;;;10.57;;
73841;SDS011;62184;52.006;5.924;2023-09-19T08:23:19;13.65;;;10.52;;
73841;SDS011;62184;52.006;5.924;2023-09-19T08:25:45;14.20;;;10.68;;
73841;SDS011;62184;52.006;5.924;2023-09-19T08:28:12;14.57;;;10.40;;
73841;SDS011;62184;52.006;5.924;2023-09-19T08:30:38;15.43;;;10.50;;
73841;SDS011;62184;52.006;5.924;2023-09-19T08:33:05;13.85;;;10.50;;
73841;SDS011;62184;52.006;5.924;2023-09-19T08:35:31;14.63;;;10.90;;
73841;SDS011;62184;52.006;5.924;2023-09-19T08:38:00;15.77;;;10.83;;
73841;SDS011;62184;52.006;5.924;2023-09-19T08:40:27;14.38;;;10.48;;
73841;SDS011;62184;52.006;5.924;2023-09-19T08:42:55;14.97;;;10.50;;
73841;SDS011;62184;52.006;5.924;2023-09-19T08:45:22;15.30;;;11.40;;
73841;SDS011;62184;52.006;5.924;2023-09-19T08:47:53;14.82;;;11.20;;
73841;SDS011;62184;52.006;5.924;2023-09-19T08:50:43;15.93;;;10.77;;
73841;SDS011;62184;52.006;5.924;2023-09-19T08:53:25;17.92;;;10.68;;
73841;SDS011;62184;52.006;5.924;2023-09-19T08:55:56;15.98;;;10.68;;
73841;SDS011;62184;52.006;5.924;2023-09-19T08:58:26;15.93;;;10.43;;
73841;SDS011;62184;52.006;5.924;2023-09-19T09:01:00;14.18;;;10.35;;
73841;SDS011;62184;52.006;5.924;2023-09-19T09:03:27;14.65;;;10.85;;
73841;SDS011;62184;52.006;5.924;2023-09-19T09:06:00;15.32;;;10.80;;
73841;SDS011;62184;52.006;5.924;2023-09-19T09:08:30;15.68;;;10.95;;
73841;SDS011;62184;52.006;5.924;2023-09-19T09:10:57;14.40;;;10.70;;
73841;SDS011;62184;52.006;5.924;2023-09-19T09:13:24;15.00;;;10.88;;
73841;SDS011;62184;52.006;5.924;2023-09-19T09:15:51;14.33;;;11.03;;
73841;SDS011;62184;52.006;5.924;2023-09-19T09:18:18;15.07;;;11.27;;
73841;SDS011;62184;52.006;5.924;2023-09-19T09:20:44;16.30;;;10.80;;
73841;SDS011;62184;52.006;5.924;2023-09-19T09:23:11;13.77;;;10.88;;
73841;SDS011;62184;52.006;5.924;2023-09-19T09:25:50;15.60;;;10.60;;
73841;SDS011;62184;52.006;5.924;2023-09-19T09:28:19;16.02;;;10.73;;
73841;SDS011;62184;52.006;5.924;2023-09-19T09:30:47;14.27;;;11.15;;
73841;SDS011;62184;52.006;5.924;2023-09-19T09:33:14;14.00;;;10.55;;
73841;SDS011;62184;52.006;5.924;2023-09-19T09:35:47;14.02;;;10.65;;
73841;SDS011;62184;52.006;5.924;2023-09-19T09:38:18;13.25;;;10.77;;
73841;SDS011;62184;52.006;5.924;2023-09-19T09:40:46;13.55;;;10.13;;
73841;SDS011;62184;52.006;5.924;2023-09-19T09:43:24;15.02;;;10.40;;
73841;SDS011;62184;52.006;5.924;2023-09-19T09:46:05;15.13;;;11.07;;
73841;SDS011;62184;52.006;5.924;2023-09-19T09:48:33;13.25;;;10.50;;
73841;SDS011;62184;52.006;5.924;2023-09-19T09:51:00;14.27;;;10.57;;
73841;SDS011;62184;52.006;5.924;2023-09-19T09:53:27;13.77;;;10.70;;
73841;SDS011;62184;52.006;5.924;2023-09-19T09:56:01;13.45;;;10.85;;
73841;SDS011;62184;52.006;5.924;2023-09-19T09:58:29;14.90;;;11.68;;
73841;SDS011;62184;52.006;5.924;2023-09-19T10:00:56;13.25;;;10.93;;
73841;SDS011;62184;52.006;5.924;2023-09-19T10:03:30;13.68;;;11.00;;
73841;SDS011;62184;52.006;5.924;2023-09-19T10:05:58;13.82;;;11.02;;
73841;SDS011;62184;52.006;5.924;2023-09-19T10:08:26;13.52;;;11.10;;
73841;SDS011;62184;52.006;5.924;2023-09-19T10:10:52;13.55;;;11.25;;
73841;SDS011;62184;52.006;5.924;2023-09-19T10:13:21;14.80;;;10.93;;
73841;SDS011;62184;52.006;5.924;2023-09-19T10:15:51;13.40;;;11.20;;
73841;SDS011;62184;52.006;5.924;2023-09-19T10:18:20;13.23;;;11.18;;
73841;SDS011;62184;52.006;5.924;2023-09-19T10:20:48;14.82;;;11.90;;
73841;SDS011;62184;52.006;5.924;2023-09-19T10:23:16;13.07;;;11.30;;
73841;SDS011;62184;52.006;5.924;2023-09-19T10:25:45;12.45;;;11.15;;
73841;SDS011;62184;52.006;5.924;2023-09-19T10:28:13;13.10;;;11.15;;
73841;SDS011;62184;52.006;5.924;2023-09-19T10:30:44;13.27;;;11.10;;
73841;SDS011;62184;52.006;5.924;2023-09-19T10:33:14;14.30;;;10.52;;
73841;SDS011;62184;52.006;5.924;2023-09-19T10:35:42;15.43;;;11.57;;
73841;SDS011;62184;52.006;5.924;2023-09-19T10:38:11;13.55;;;10.80;;
73841;SDS011;62184;52.006;5.924;2023-09-19T10:40:43;14.40;;;11.00;;
73841;SDS011;62184;52.006;5.924;2023-09-19T10:43:11;12.55;;;10.57;;
73841;SDS011;62184;52.006;5.924;2023-09-19T10:45:44;13.32;;;10.27;;
73841;SDS011;62184;52.006;5.924;2023-09-19T10:48:11;14.13;;;10.80;;
73841;SDS011;62184;52.006;5.924;2023-09-19T10:50:41;14.40;;;10.73;;
73841;SDS011;62184;52.006;5.924;2023-09-19T10:53:14;13.27;;;10.35;;
73841;SDS011;62184;52.006;5.924;2023-09-19T10:55:47;12.45;;;10.55;;
73841;SDS011;62184;52.006;5.924;2023-09-19T10:58:24;14.18;;;10.35;;
73841;SDS011;62184;52.006;5.924;2023-09-19T11:00:56;12.57;;;10.10;;
73841;SDS011;62184;52.006;5.924;2023-09-19T11:03:24;14.13;;;10.47;;
73841;SDS011;62184;52.006;5.924;2023-09-19T11:06:00;14.00;;;10.50;;
73841;SDS011;62184;52.006;5.924;2023-09-19T11:11:43;12.68;;;10.35;;
73841;SDS011;62184;52.006;5.924;2023-09-19T11:14:15;14.35;;;10.13;;
73841;SDS011;62184;52.006;5.924;2023-09-19T11:25:45;12.70;;;10.55;;
73841;SDS011;62184;52.006;5.924;2023-09-19T11:40:24;13.77;;;10.90;;
73841;SDS011;62184;52.006;5.924;2023-09-19T11:42:51;14.05;;;10.60;;
73841;SDS011;62184;52.006;5.924;2023-09-19T11:48:29;12.77;;;10.77;;
73841;SDS011;62184;52.006;5.924;2023-09-19T11:51:00;12.93;;;10.98;;
73841;SDS011;62184;52.006;5.924;2023-09-19T11:53:30;14.67;;;10.80;;
73841;SDS011;62184;52.006;5.924;2023-09-19T11:55:57;11.95;;;10.63;;
73841;SDS011;62184;52.006;5.924;2023-09-19T11:58:25;11.80;;;10.50;;
73841;SDS011;62184;52.006;5.924;2023-09-19T12:00:53;12.32;;;11.02;;
73841;SDS011;62184;52.006;5.924;2023-09-19T12:03:21;12.68;;;10.00;;
73841;SDS011;62184;52.006;5.924;2023-09-19T12:05:49;13.27;;;10.50;;
73841;SDS011;62184;52.006;5.924;2023-09-19T12:08:18;13.23;;;10.23;;
73841;SDS011;62184;52.006;5.924;2023-09-19T12:10:45;11.43;;;10.00;;
73841;SDS011;62184;52.006;5.924;2023-09-19T12:13:15;14.55;;;10.10;;
73841;SDS011;62184;52.006;5.924;2023-09-19T12:15:43;10.70;;;9.47;;
73841;SDS011;62184;52.006;5.924;2023-09-19T12:18:09;12.43;;;10.13;;
73841;SDS011;62184;52.006;5.924;2023-09-19T12:20:43;11.43;;;9.50;;
73841;SDS011;62184;52.006;5.924;2023-09-19T12:23:12;12.50;;;9.87;;
73841;SDS011;62184;52.006;5.924;2023-09-19T12:25:43;10.65;;;9.25;;
73841;SDS011;62184;52.006;5.924;2023-09-19T12:28:10;11.73;;;9.68;;
73841;SDS011;62184;52.006;5.924;2023-09-19T12:30:38;12.07;;;9.05;;
73841;SDS011;62184;52.006;5.924;2023-09-19T12:33:05;10.25;;;9.25;;
73841;SDS011;62184;52.006;5.924;2023-09-19T12:35:40;10.23;;;8.70;;
73841;SDS011;62184;52.006;5.924;2023-09-19T12:38:06;11.20;;;9.00;;
73841;SDS011;62184;52.006;5.924;2023-09-19T12:40:32;10.07;;;8.35;;
73841;SDS011;62184;52.006;5.924;2023-09-19T12:43:02;11.47;;;8.60;;
73841;SDS011;62184;52.006;5.924;2023-09-19T12:45:30;11.05;;;8.73;;
73841;SDS011;62184;52.006;5.924;2023-09-19T12:50:59;9.77;;;8.60;;
73841;SDS011;62184;52.006;5.924;2023-09-19T12:53:29;9.63;;;8.63;;
73841;SDS011;62184;52.006;5.924;2023-09-19T12:55:58;9.40;;;8.50;;
73841;SDS011;62184;52.006;5.924;2023-09-19T12:58:27;10.00;;;8.30;;
73841;SDS011;62184;52.006;5.924;2023-09-19T13:00:54;9.47;;;8.57;;
73841;SDS011;62184;52.006;5.924;2023-09-19T13:03:25;9.50;;;8.60;;
73841;SDS011;62184;52.006;5.924;2023-09-19T13:05:53;10.15;;;8.60;;
73841;SDS011;62184;52.006;5.924;2023-09-19T13:08:21;9.45;;;8.55;;
73841;SDS011;62184;52.006;5.924;2023-09-19T13:13:46;9.30;;;8.15;;
73841;SDS011;62184;52.006;5.924;2023-09-19T13:16:15;9.70;;;8.70;;
73841;SDS011;62184;52.006;5.924;2023-09-19T13:18:45;9.23;;;8.32;;
73841;SDS011;62184;52.006;5.924;2023-09-19T13:21:13;9.48;;;8.48;;
73841;SDS011;62184;52.006;5.924;2023-09-19T13:23:41;9.30;;;8.35;;
73841;SDS011;62184;52.006;5.924;2023-09-19T13:26:08;9.05;;;8.20;;
73841;SDS011;62184;52.006;5.924;2023-09-19T13:28:35;9.25;;;8.35;;
73841;SDS011;62184;52.006;5.924;2023-09-19T13:31:06;8.90;;;8.10;;
73841;SDS011;62184;52.006;5.924;2023-09-19T13:33:34;9.55;;;8.65;;
73841;SDS011;62184;52.006;5.924;2023-09-19T13:36:01;9.43;;;8.40;;
73841;SDS011;62184;52.006;5.924;2023-09-19T13:38:28;9.18;;;8.25;;
73841;SDS011;62184;52.006;5.924;2023-09-19T13:40:54;9.30;;;8.40;;
73841;SDS011;62184;52.006;5.924;2023-09-19T13:43:21;9.38;;;8.48;;
73841;SDS011;62184;52.006;5.924;2023-09-19T13:45:47;8.85;;;7.82;;
73841;SDS011;62184;52.006;5.924;2023-09-19T13:48:16;8.80;;;7.90;;
73841;SDS011;62184;52.006;5.924;2023-09-19T13:50:43;9.40;;;8.20;;
73841;SDS011;62184;52.006;5.924;2023-09-19T13:53:09;9.17;;;8.30;;
73841;SDS011;62184;52.006;5.924;2023-09-19T13:55:36;9.00;;;7.70;;
73841;SDS011;62184;52.006;5.924;2023-09-19T13:58:02;8.93;;;8.05;;
73841;SDS011;62184;52.006;5.924;2023-09-19T14:00:29;9.10;;;8.20;;
73841;SDS011;62184;52.006;5.924;2023-09-19T14:02:56;8.73;;;7.90;;
73841;SDS011;62184;52.006;5.924;2023-09-19T14:05:25;9.13;;;8.23;;
73841;SDS011;62184;52.006;5.924;2023-09-19T14:07:51;8.80;;;8.00;;
73841;SDS011;62184;52.006;5.924;2023-09-19T14:10:17;9.10;;;8.20;;
73841;SDS011;62184;52.006;5.924;2023-09-19T14:12:44;9.15;;;8.10;;
73841;SDS011;62184;52.006;5.924;2023-09-19T14:15:11;9.00;;;8.10;;
73841;SDS011;62184;52.006;5.924;2023-09-19T14:17:38;8.93;;;8.13;;
73841;SDS011;62184;52.006;5.924;2023-09-19T14:20:06;8.98;;;8.00;;
73841;SDS011;62184;52.006;5.924;2023-09-19T14:22:36;8.45;;;7.68;;
73841;SDS011;62184;52.006;5.924;2023-09-19T14:25:03;8.98;;;7.85;;
73841;SDS011;62184;52.006;5.924;2023-09-19T14:27:31;8.90;;;7.95;;
73841;SDS011;62184;52.006;5.924;2023-09-19T14:29:57;9.13;;;8.23;;
73841;SDS011;62184;52.006;5.924;2023-09-19T14:32:23;9.32;;;7.85;;
73841;SDS011;62184;52.006;5.924;2023-09-19T14:34:50;8.30;;;7.43;;
73841;SDS011;62184;52.006;5.924;2023-09-19T14:37:16;8.60;;;7.70;;
73841;SDS011;62184;52.006;5.924;2023-09-19T14:39:45;8.75;;;7.72;;
73841;SDS011;62184;52.006;5.924;2023-09-19T14:42:12;8.45;;;7.65;;
73841;SDS011;62184;52.006;5.924;2023-09-19T14:44:38;8.25;;;7.43;;
73841;SDS011;62184;52.006;5.924;2023-09-19T14:47:05;8.80;;;7.90;;
73841;SDS011;62184;52.006;5.924;2023-09-19T14:49:32;8.52;;;7.30;;
73841;SDS011;62184;52.006;5.924;2023-09-19T14:51:59;10.57;;;7.73;;
73841;SDS011;62184;52.006;5.924;2023-09-19T14:54:25;9.27;;;7.90;;
73841;SDS011;62184;52.006;5.924;2023-09-19T14:56:54;8.35;;;7.55;;
73841;SDS011;62184;52.006;5.924;2023-09-19T14:59:21;8.43;;;7.53;;
73841;SDS011;62184;52.006;5.924;2023-09-19T15:01:47;8.85;;;8.00;;
73841;SDS011;62184;52.006;5.924;2023-09-19T15:04:14;10.05;;;8.20;;
73841;SDS011;62184;52.006;5.924;2023-09-19T15:06:40;8.98;;;8.10;;